Bookmark and Share
Track history (hours):
 

Campbell Foss

More information available from US FCC via Universal Licensing System and Coast Guard Vessel Documentation Center.

Last reported at 2014-Apr-17 14:29 UTC. Time now 2014-Apr-18 20:58 UTC.
Position N 33°44' W 118°16'.

Length 23 m; draft 16 m.

Type: Tug. MMSI: 367076360.

NotesDate/timePositionNaut miles runAvg speedWind from/ knotsBaromVisibWave heightAir tempDewpointWater temp
2014-Apr-17 14:29N 33°44' W 118°16'1 0.6
2014-Apr-17 12:27N 33°43' W 118°15'2 0.2
2014-Apr-16 23:12N 33°44' W 118°13'1 0.9
2014-Apr-16 22:29N 33°45' W 118°12'4 0.5
2014-Apr-16 15:03N 33°45' W 118°16'3 0.3
2014-Apr-16 04:18N 33°46' W 118°13'0 0.0
2014-Apr-16 02:08N 33°46' W 118°13'0 0.0
2014-Apr-16 00:10N 33°46' W 118°13'0 0.0
2014-Apr-15 23:18N 33°46' W 118°13'0 0.2
2014-Apr-15 22:33N 33°46' W 118°13'0 0.4
2014-Apr-15 21:33N 33°46' W 118°13'3 3.3
2014-Apr-15 20:33N 33°44' W 118°11'5 0.9
2014-Apr-15 15:22N 33°44' W 118°17'1 0.5
2014-Apr-15 12:32N 33°46' W 118°16'2 0.6
2014-Apr-15 08:34N 33°46' W 118°13'0 0.0
2014-Apr-15 07:32N 33°46' W 118°13'0 0.0
2014-Apr-15 06:30N 33°46' W 118°13'0 0.0
2014-Apr-15 05:34N 33°46' W 118°13'0 0.0
2014-Apr-14 21:32N 33°46' W 118°13'0 0.0
2014-Apr-14 20:31N 33°46' W 118°13'  
2014-Apr-12 05:22N 33°45' W 118°14'1 0.6
2014-Apr-12 03:21N 33°46' W 118°13'4 4.7
2014-Apr-12 02:33N 33°43' W 118°11'5 4.8
2014-Apr-12 01:33N 33°45' W 118°16'0 0.3
2014-Apr-12 00:33N 33°45' W 118°16'3 3.0
2014-Apr-11 23:33N 33°43' W 118°13'2 2.2
2014-Apr-11 22:33N 33°46' W 118°13'1 1.4
2014-Apr-11 21:33N 33°44' W 118°13'3 2.7
2014-Apr-11 20:31N 33°46' W 118°16'2 2.0
2014-Apr-11 19:33N 33°46' W 118°13'0 0.3
2014-Apr-11 18:33N 33°46' W 118°13'2 2.5
2014-Apr-11 17:33N 33°44' W 118°13'1 1.0
2014-Apr-11 16:33N 33°44' W 118°14'2 1.6
2014-Apr-11 15:22N 33°43' W 118°15'2 1.8
2014-Apr-11 14:08N 33°45' W 118°16'3 5.8
2014-Apr-11 13:33N 33°42' W 118°15'3 2.8
2014-Apr-11 12:33N 33°44' W 118°12'0 0.4
2014-Apr-11 11:33N 33°44' W 118°12'3 2.6
2014-Apr-11 10:33N 33°46' W 118°13'0 0.0
2014-Apr-11 09:33N 33°46' W 118°13'0 0.0
2014-Apr-11 08:07N 33°46' W 118°13'0 0.0
2014-Apr-11 07:33N 33°46' W 118°13'0 0.0
2014-Apr-11 03:16N 33°46' W 118°13'1 1.0
2014-Apr-11 02:33N 33°46' W 118°13'0 0.0
2014-Apr-11 01:31N 33°46' W 118°13'2 2.4
2014-Apr-11 00:33N 33°43' W 118°14'3 2.9
2014-Apr-10 23:33N 33°46' W 118°16'2 2.1
2014-Apr-10 22:33N 33°46' W 118°13'0 0.0
2014-Apr-10 21:33N 33°46' W 118°13'0 0.0
2014-Apr-10 20:33N 33°46' W 118°13'1 0.8
2014-Apr-10 19:33N 33°45' W 118°14'2 1.6
2014-Apr-10 18:33N 33°44' W 118°13'2 2.1
2014-Apr-10 17:30N 33°46' W 118°13'1 0.7
2014-Apr-10 16:33N 33°46' W 118°13'1 0.6
2014-Apr-10 15:33N 33°45' W 118°13'2 2.3
2014-Apr-10 14:33N 33°44' W 118°15'1 1.2
2014-Apr-10 13:33N 33°43' W 118°15'2 2.0
2014-Apr-10 12:33N 33°44' W 118°13'1 1.3
2014-Apr-10 11:33N 33°44' W 118°11'2 2.3
2014-Apr-10 10:33N 33°45' W 118°13'1 0.2
2014-Apr-10 06:07N 33°46' W 118°13'2 0.1
2014-Apr-09 18:30N 33°45' W 118°13'2 1.8
2014-Apr-09 17:31N 33°45' W 118°11'4 4.7
2014-Apr-09 16:33N 33°43' W 118°16'3 3.1
2014-Apr-09 15:32N 33°46' W 118°14'1 0.8
2014-Apr-09 14:26N 33°46' W 118°13'0 0.1
2014-Apr-09 13:23N 33°46' W 118°13'2 2.4
2014-Apr-09 12:33N 33°44' W 118°13'2 1.5
2014-Apr-09 11:24N 33°43' W 118°11'0 0.0
2014-Apr-08 17:32N 33°44' W 118°11'3 3.1
2014-Apr-08 16:31N 33°46' W 118°13'3 2.8
2014-Apr-08 15:26N 33°45' W 118°16'1 0.6
2014-Apr-08 13:24N 33°46' W 118°16'2 1.5
2014-Apr-08 12:10N 33°45' W 118°14'1 0.2
2014-Apr-08 07:29N 33°46' W 118°14'1 0.1
2014-Apr-07 20:14N 33°46' W 118°13'0 0.0
2014-Apr-07 17:34N 33°46' W 118°13'3 2.7
2014-Apr-07 16:33N 33°44' W 118°13'3 2.6
2014-Apr-07 15:20N 33°46' W 118°16'2 2.5
2014-Apr-07 14:33N 33°44' W 118°16'  

Dump ship's entire track history

sailing weather and tide predictions

Campbell Foss — WDC7754 — position and weather